sensor_id;sensor_type;location;lat;lon;timestamp;temperature;humidity
22071;DHT22;11200;51.488;6.668;2023-04-24T03:52:26;10.40;99.90
22071;DHT22;11200;51.488;6.668;2023-04-24T03:54:52;10.40;99.90
22071;DHT22;11200;51.488;6.668;2023-04-24T03:57:17;10.40;99.90
22071;DHT22;11200;51.488;6.668;2023-04-24T03:59:43;10.40;99.90
22071;DHT22;11200;51.488;6.668;2023-04-24T04:04:45;10.30;99.90
22071;DHT22;11200;51.488;6.668;2023-04-24T04:07:11;9.90;99.90
22071;DHT22;11200;51.488;6.668;2023-04-24T04:09:43;8.60;99.90
22071;DHT22;11200;51.488;6.668;2023-04-24T04:12:09;9.90;99.90
22071;DHT22;11200;51.488;6.668;2023-04-24T04:14:35;10.40;99.90
22071;DHT22;11200;51.488;6.668;2023-04-24T04:17:00;10.40;99.90
22071;DHT22;11200;51.488;6.668;2023-04-24T04:19:26;10.40;99.90
22071;DHT22;11200;51.488;6.668;2023-04-24T04:21:51;10.30;99.90
22071;DHT22;11200;51.488;6.668;2023-04-24T04:24:19;10.40;99.90
22071;DHT22;11200;51.488;6.668;2023-04-24T04:26:46;10.40;99.90
22071;DHT22;11200;51.488;6.668;2023-04-24T04:29:13;10.40;99.90
22071;DHT22;11200;51.488;6.668;2023-04-24T04:31:38;10.30;99.90
22071;DHT22;11200;51.488;6.668;2023-04-24T04:34:04;10.30;99.90
22071;DHT22;11200;51.488;6.668;2023-04-24T04:36:30;10.30;99.90
22071;DHT22;11200;51.488;6.668;2023-04-24T04:38:55;10.30;99.90
22071;DHT22;11200;51.488;6.668;2023-04-24T04:41:22;10.30;99.90
22071;DHT22;11200;51.488;6.668;2023-04-24T04:43:47;10.30;99.90
22071;DHT22;11200;51.488;6.668;2023-04-24T04:46:15;10.30;99.90
22071;DHT22;11200;51.488;6.668;2023-04-24T04:48:44;10.10;99.90
22071;DHT22;11200;51.488;6.668;2023-04-24T04:51:10;10.40;99.90
22071;DHT22;11200;51.488;6.668;2023-04-24T04:53:35;10.30;99.90
22071;DHT22;11200;51.488;6.668;2023-04-24T04:56:01;10.30;99.90
22071;DHT22;11200;51.488;6.668;2023-04-24T04:58:26;10.30;99.90
22071;DHT22;11200;51.488;6.668;2023-04-24T05:00:52;10.20;99.90
22071;DHT22;11200;51.488;6.668;2023-04-24T05:03:18;10.40;99.90
22071;DHT22;11200;51.488;6.668;2023-04-24T05:05:45;10.30;99.90
22071;DHT22;11200;51.488;6.668;2023-04-24T05:08:12;10.20;99.90
22071;DHT22;11200;51.488;6.668;2023-04-24T05:10:37;10.20;99.90
22071;DHT22;11200;51.488;6.668;2023-04-24T05:13:03;10.20;99.90
22071;DHT22;11200;51.488;6.668;2023-04-24T05:15:29;10.30;99.90
22071;DHT22;11200;51.488;6.668;2023-04-24T05:17:55;10.20;99.90
22071;DHT22;11200;51.488;6.668;2023-04-24T05:20:21;10.20;99.90
22071;DHT22;11200;51.488;6.668;2023-04-24T05:22:46;10.20;99.90
22071;DHT22;11200;51.488;6.668;2023-04-24T05:25:12;10.20;99.90
22071;DHT22;11200;51.488;6.668;2023-04-24T05:27:38;10.20;99.90
22071;DHT22;11200;51.488;6.668;2023-04-24T05:30:04;10.20;99.90
22071;DHT22;11200;51.488;6.668;2023-04-24T05:32:30;10.20;99.90
22071;DHT22;11200;51.488;6.668;2023-04-24T05:34:56;10.20;99.90
22071;DHT22;11200;51.488;6.668;2023-04-24T05:37:21;10.20;99.90
22071;DHT22;11200;51.488;6.668;2023-04-24T05:39:47;10.30;99.90
22071;DHT22;11200;51.488;6.668;2023-04-24T05:42:12;10.10;99.90
22071;DHT22;11200;51.488;6.668;2023-04-24T05:44:38;10.20;99.90
22071;DHT22;11200;51.488;6.668;2023-04-24T05:47:06;10.20;99.90
22071;DHT22;11200;51.488;6.668;2023-04-24T05:49:32;10.00;99.90
22071;DHT22;11200;51.488;6.668;2023-04-24T05:51:57;10.30;99.90
22071;DHT22;11200;51.488;6.668;2023-04-24T05:54:23;10.20;99.90
22071;DHT22;11200;51.488;6.668;2023-04-24T05:56:52;10.20;99.90
22071;DHT22;11200;51.488;6.668;2023-04-24T05:59:19;10.30;99.90
22071;DHT22;11200;51.488;6.668;2023-04-24T06:01:45;10.00;99.90
22071;DHT22;11200;51.488;6.668;2023-04-24T06:04:12;10.10;99.90
22071;DHT22;11200;51.488;6.668;2023-04-24T06:06:39;10.20;99.90
22071;DHT22;11200;51.488;6.668;2023-04-24T06:09:05;10.10;99.90
22071;DHT22;11200;51.488;6.668;2023-04-24T06:11:30;10.30;99.90
22071;DHT22;11200;51.488;6.668;2023-04-24T06:13:57;10.20;99.90
22071;DHT22;11200;51.488;6.668;2023-04-24T06:16:22;10.20;99.90
22071;DHT22;11200;51.488;6.668;2023-04-24T06:18:48;10.00;99.90
22071;DHT22;11200;51.488;6.668;2023-04-24T06:21:17;10.10;99.90
22071;DHT22;11200;51.488;6.668;2023-04-24T06:23:43;10.20;99.90
22071;DHT22;11200;51.488;6.668;2023-04-24T06:26:08;10.50;99.90
22071;DHT22;11200;51.488;6.668;2023-04-24T06:28:34;10.20;99.90
22071;DHT22;11200;51.488;6.668;2023-04-24T06:31:00;10.10;99.90
22071;DHT22;11200;51.488;6.668;2023-04-24T06:33:26;10.10;99.90
22071;DHT22;11200;51.488;6.668;2023-04-24T06:35:51;10.10;99.90
22071;DHT22;11200;51.488;6.668;2023-04-24T06:38:17;10.10;99.90
22071;DHT22;11200;51.488;6.668;2023-04-24T06:40:42;10.20;99.90
22071;DHT22;11200;51.488;6.668;2023-04-24T06:43:08;10.20;99.90
22071;DHT22;11200;51.488;6.668;2023-04-24T06:45:34;10.10;99.90
22071;DHT22;11200;51.488;6.668;2023-04-24T06:48:00;10.10;99.90
22071;DHT22;11200;51.488;6.668;2023-04-24T06:50:26;10.10;99.90
22071;DHT22;11200;51.488;6.668;2023-04-24T06:52:51;10.10;99.90
22071;DHT22;11200;51.488;6.668;2023-04-24T06:55:17;10.10;99.90
22071;DHT22;11200;51.488;6.668;2023-04-24T06:57:43;10.00;99.90
22071;DHT22;11200;51.488;6.668;2023-04-24T07:00:10;10.20;99.90
22071;DHT22;11200;51.488;6.668;2023-04-24T07:02:36;10.00;99.90
22071;DHT22;11200;51.488;6.668;2023-04-24T07:05:03;10.00;99.90
22071;DHT22;11200;51.488;6.668;2023-04-24T07:07:29;10.00;99.90
22071;DHT22;11200;51.488;6.668;2023-04-24T07:09:54;10.10;99.90
22071;DHT22;11200;51.488;6.668;2023-04-24T07:12:21;10.10;99.90
22071;DHT22;11200;51.488;6.668;2023-04-24T07:14:47;10.00;99.90
22071;DHT22;11200;51.488;6.668;2023-04-24T07:17:13;10.00;99.90
22071;DHT22;11200;51.488;6.668;2023-04-24T07:19:39;10.00;99.90
22071;DHT22;11200;51.488;6.668;2023-04-24T07:22:05;10.10;99.90
22071;DHT22;11200;51.488;6.668;2023-04-24T07:24:31;10.20;99.90
22071;DHT22;11200;51.488;6.668;2023-04-24T07:27:01;10.10;99.90
22071;DHT22;11200;51.488;6.668;2023-04-24T07:29:26;10.10;99.90
22071;DHT22;11200;51.488;6.668;2023-04-24T07:31:52;10.10;99.90
22071;DHT22;11200;51.488;6.668;2023-04-24T07:34:19;10.10;99.90
22071;DHT22;11200;51.488;6.668;2023-04-24T07:36:45;10.10;99.90
22071;DHT22;11200;51.488;6.668;2023-04-24T07:39:11;10.10;99.90
22071;DHT22;11200;51.488;6.668;2023-04-24T07:41:36;10.20;99.90
22071;DHT22;11200;51.488;6.668;2023-04-24T07:44:02;10.10;99.90
22071;DHT22;11200;51.488;6.668;2023-04-24T07:46:30;10.20;99.90
22071;DHT22;11200;51.488;6.668;2023-04-24T07:48:55;10.10;99.90
22071;DHT22;11200;51.488;6.668;2023-04-24T07:51:21;10.10;99.90
22071;DHT22;11200;51.488;6.668;2023-04-24T07:53:47;10.30;99.90
22071;DHT22;11200;51.488;6.668;2023-04-24T07:56:12;10.50;99.90
22071;DHT22;11200;51.488;6.668;2023-04-24T07:58:38;10.10;99.90
22071;DHT22;11200;51.488;6.668;2023-04-24T08:01:04;10.10;99.90
22071;DHT22;11200;51.488;6.668;2023-04-24T08:03:31;10.10;99.90
22071;DHT22;11200;51.488;6.668;2023-04-24T08:05:56;10.10;99.90
22071;DHT22;11200;51.488;6.668;2023-04-24T08:08:24;10.00;99.90
22071;DHT22;11200;51.488;6.668;2023-04-24T08:10:50;10.30;99.90
22071;DHT22;11200;51.488;6.668;2023-04-24T08:13:15;10.00;99.90
22071;DHT22;11200;51.488;6.668;2023-04-24T08:15:41;10.00;99.90
22071;DHT22;11200;51.488;6.668;2023-04-24T08:18:07;10.00;99.90
22071;DHT22;11200;51.488;6.668;2023-04-24T08:20:33;10.00;99.90
22071;DHT22;11200;51.488;6.668;2023-04-24T08:22:58;10.00;99.90
22071;DHT22;11200;51.488;6.668;2023-04-24T08:25:24;10.00;99.90
22071;DHT22;11200;51.488;6.668;2023-04-24T08:27:50;10.00;99.90
22071;DHT22;11200;51.488;6.668;2023-04-24T08:30:16;10.00;99.90
22071;DHT22;11200;51.488;6.668;2023-04-24T08:32:42;10.10;99.90
22071;DHT22;11200;51.488;6.668;2023-04-24T08:35:08;10.10;99.90
22071;DHT22;11200;51.488;6.668;2023-04-24T08:37:34;10.00;99.90
22071;DHT22;11200;51.488;6.668;2023-04-24T08:40:01;10.10;99.90
22071;DHT22;11200;51.488;6.668;2023-04-24T08:42:34;10.10;99.90
22071;DHT22;11200;51.488;6.668;2023-04-24T08:45:02;10.10;99.90
22071;DHT22;11200;51.488;6.668;2023-04-24T08:47:29;10.10;99.90
22071;DHT22;11200;51.488;6.668;2023-04-24T08:49:56;10.10;99.90
22071;DHT22;11200;51.488;6.668;2023-04-24T08:52:22;10.10;99.90
22071;DHT22;11200;51.488;6.668;2023-04-24T08:54:48;10.20;99.90
22071;DHT22;11200;51.488;6.668;2023-04-24T08:57:15;10.20;99.90
22071;DHT22;11200;51.488;6.668;2023-04-24T08:59:42;10.20;99.90
22071;DHT22;11200;51.488;6.668;2023-04-24T09:02:10;10.30;99.90
22071;DHT22;11200;51.488;6.668;2023-04-24T09:04:37;10.20;99.90
22071;DHT22;11200;51.488;6.668;2023-04-24T09:07:04;10.20;99.90
22071;DHT22;11200;51.488;6.668;2023-04-24T09:09:34;10.20;99.90
22071;DHT22;11200;51.488;6.668;2023-04-24T09:12:01;10.40;99.90
22071;DHT22;11200;51.488;6.668;2023-04-24T09:14:27;10.20;99.90
22071;DHT22;11200;51.488;6.668;2023-04-24T09:16:53;10.20;99.90
22071;DHT22;11200;51.488;6.668;2023-04-24T09:19:19;10.20;99.90
22071;DHT22;11200;51.488;6.668;2023-04-24T09:21:48;10.10;99.90
22071;DHT22;11200;51.488;6.668;2023-04-24T09:24:19;10.20;99.90
22071;DHT22;11200;51.488;6.668;2023-04-24T09:26:49;10.20;99.90
22071;DHT22;11200;51.488;6.668;2023-04-24T09:29:20;10.20;99.90
22071;DHT22;11200;51.488;6.668;2023-04-24T09:31:46;10.20;99.90
22071;DHT22;11200;51.488;6.668;2023-04-24T09:34:12;10.20;99.90
22071;DHT22;11200;51.488;6.668;2023-04-24T09:36:42;10.20;99.90
22071;DHT22;11200;51.488;6.668;2023-04-24T09:39:11;10.20;99.90
22071;DHT22;11200;51.488;6.668;2023-04-24T09:41:49;10.20;99.90
22071;DHT22;11200;51.488;6.668;2023-04-24T09:44:17;10.20;99.90
22071;DHT22;11200;51.488;6.668;2023-04-24T09:46:44;10.20;99.90
22071;DHT22;11200;51.488;6.668;2023-04-24T09:49:13;10.20;99.90
22071;DHT22;11200;51.488;6.668;2023-04-24T09:51:39;10.20;99.90
22071;DHT22;11200;51.488;6.668;2023-04-24T09:54:14;10.10;99.90
22071;DHT22;11200;51.488;6.668;2023-04-24T09:56:43;10.10;99.90
22071;DHT22;11200;51.488;6.668;2023-04-24T09:59:10;10.10;99.90
22071;DHT22;11200;51.488;6.668;2023-04-24T10:01:36;10.10;99.90
22071;DHT22;11200;51.488;6.668;2023-04-24T10:04:03;10.10;99.90
22071;DHT22;11200;51.488;6.668;2023-04-24T10:06:37;10.10;99.90
22071;DHT22;11200;51.488;6.668;2023-04-24T10:09:02;10.10;99.90
22071;DHT22;11200;51.488;6.668;2023-04-24T10:11:30;10.20;99.90
22071;DHT22;11200;51.488;6.668;2023-04-24T10:13:56;10.10;99.90
22071;DHT22;11200;51.488;6.668;2023-04-24T10:16:23;10.20;99.90
22071;DHT22;11200;51.488;6.668;2023-04-24T10:18:49;10.10;99.90
22071;DHT22;11200;51.488;6.668;2023-04-24T10:21:15;10.20;99.90
22071;DHT22;11200;51.488;6.668;2023-04-24T10:23:42;10.20;99.90
22071;DHT22;11200;51.488;6.668;2023-04-24T10:26:12;10.20;99.90
22071;DHT22;11200;51.488;6.668;2023-04-24T10:28:45;10.20;99.90
22071;DHT22;11200;51.488;6.668;2023-04-24T10:31:12;10.20;99.90
22071;DHT22;11200;51.488;6.668;2023-04-24T10:33:43;10.20;99.90
22071;DHT22;11200;51.488;6.668;2023-04-24T10:36:10;10.20;99.90
22071;DHT22;11200;51.488;6.668;2023-04-24T10:38:37;10.20;99.90
22071;DHT22;11200;51.488;6.668;2023-04-24T10:41:09;10.20;99.90
22071;DHT22;11200;51.488;6.668;2023-04-24T10:43:40;10.30;99.90
22071;DHT22;11200;51.488;6.668;2023-04-24T10:46:06;10.30;99.90
22071;DHT22;11200;51.488;6.668;2023-04-24T10:48:32;10.30;99.90
22071;DHT22;11200;51.488;6.668;2023-04-24T10:50:59;10.30;99.90
22071;DHT22;11200;51.488;6.668;2023-04-24T10:53:29;10.30;99.90
22071;DHT22;11200;51.488;6.668;2023-04-24T10:55:59;10.40;99.90
22071;DHT22;11200;51.488;6.668;2023-04-24T10:58:38;10.40;99.90
22071;DHT22;11200;51.488;6.668;2023-04-24T11:01:05;10.40;99.90
22071;DHT22;11200;51.488;6.668;2023-04-24T11:03:33;10.50;99.90
22071;DHT22;11200;51.488;6.668;2023-04-24T11:06:08;10.50;99.90
22071;DHT22;11200;51.488;6.668;2023-04-24T11:08:44;10.60;99.90
22071;DHT22;11200;51.488;6.668;2023-04-24T11:11:15;10.60;99.90
22071;DHT22;11200;51.488;6.668;2023-04-24T11:16:51;10.70;99.90
22071;DHT22;11200;51.488;6.668;2023-04-24T11:19:26;10.70;99.90
22071;DHT22;11200;51.488;6.668;2023-04-24T11:22:04;10.80;99.90
22071;DHT22;11200;51.488;6.668;2023-04-24T11:27:09;10.80;99.90
22071;DHT22;11200;51.488;6.668;2023-04-24T11:29:48;10.80;99.90
22071;DHT22;11200;51.488;6.668;2023-04-24T11:37:38;10.80;99.90
22071;DHT22;11200;51.488;6.668;2023-04-24T11:40:06;10.70;99.90
22071;DHT22;11200;51.488;6.668;2023-04-24T11:42:37;10.80;99.90
22071;DHT22;11200;51.488;6.668;2023-04-24T11:45:11;10.80;99.90
22071;DHT22;11200;51.488;6.668;2023-04-24T11:47:37;10.80;99.90
22071;DHT22;11200;51.488;6.668;2023-04-24T11:50:05;10.80;99.90
22071;DHT22;11200;51.488;6.668;2023-04-24T11:52:32;10.80;99.90
22071;DHT22;11200;51.488;6.668;2023-04-24T11:54:59;10.90;99.90
22071;DHT22;11200;51.488;6.668;2023-04-24T11:57:26;10.90;99.90
22071;DHT22;11200;51.488;6.668;2023-04-24T11:59:59;11.00;99.90
22071;DHT22;11200;51.488;6.668;2023-04-24T12:02:26;11.00;99.90
22071;DHT22;11200;51.488;6.668;2023-04-24T12:04:55;11.00;99.90
22071;DHT22;11200;51.488;6.668;2023-04-24T12:07:22;11.00;99.90
22071;DHT22;11200;51.488;6.668;2023-04-24T12:09:57;11.10;99.90
22071;DHT22;11200;51.488;6.668;2023-04-24T12:12:27;11.10;99.90
22071;DHT22;11200;51.488;6.668;2023-04-24T12:14:55;11.10;99.90
22071;DHT22;11200;51.488;6.668;2023-04-24T12:17:29;11.20;99.90
22071;DHT22;11200;51.488;6.668;2023-04-24T12:20:04;11.10;99.90
22071;DHT22;11200;51.488;6.668;2023-04-24T12:23:03;11.10;99.90
22071;DHT22;11200;51.488;6.668;2023-04-24T12:25:29;11.10;99.90
22071;DHT22;11200;51.488;6.668;2023-04-24T12:28:09;11.10;99.90
22071;DHT22;11200;51.488;6.668;2023-04-24T12:30:44;11.10;99.90
22071;DHT22;11200;51.488;6.668;2023-04-24T12:33:17;11.20;99.90
22071;DHT22;11200;51.488;6.668;2023-04-24T12:35:44;11.10;99.90
22071;DHT22;11200;51.488;6.668;2023-04-24T12:38:15;11.20;99.90
22071;DHT22;11200;51.488;6.668;2023-04-24T12:40:42;11.20;99.90
22071;DHT22;11200;51.488;6.668;2023-04-24T12:43:18;11.20;99.90
22071;DHT22;11200;51.488;6.668;2023-04-24T12:45:44;11.20;99.90
22071;DHT22;11200;51.488;6.668;2023-04-24T12:48:10;11.40;99.90
22071;DHT22;11200;51.488;6.668;2023-04-24T12:50:37;11.30;99.90
22071;DHT22;11200;51.488;6.668;2023-04-24T12:53:03;11.40;99.90
22071;DHT22;11200;51.488;6.668;2023-04-24T12:55:28;11.40;99.90
22071;DHT22;11200;51.488;6.668;2023-04-24T12:57:54;11.40;99.90
22071;DHT22;11200;51.488;6.668;2023-04-24T13:00:21;11.50;99.90
22071;DHT22;11200;51.488;6.668;2023-04-24T13:02:48;11.50;99.90
22071;DHT22;11200;51.488;6.668;2023-04-24T13:05:17;11.60;99.90
22071;DHT22;11200;51.488;6.668;2023-04-24T13:07:43;12.10;99.90
22071;DHT22;11200;51.488;6.668;2023-04-24T13:10:09;11.60;99.90
22071;DHT22;11200;51.488;6.668;2023-04-24T13:12:35;11.70;99.90
22071;DHT22;11200;51.488;6.668;2023-04-24T13:15:01;11.70;99.90
22071;DHT22;11200;51.488;6.668;2023-04-24T13:17:26;11.70;99.90
22071;DHT22;11200;51.488;6.668;2023-04-24T13:19:54;11.70;99.90
22071;DHT22;11200;51.488;6.668;2023-04-24T13:22:20;11.70;99.90
22071;DHT22;11200;51.488;6.668;2023-04-24T13:24:47;11.80;99.90
22071;DHT22;11200;51.488;6.668;2023-04-24T13:27:16;11.80;99.90
22071;DHT22;11200;51.488;6.668;2023-04-24T13:29:42;11.80;99.90
22071;DHT22;11200;51.488;6.668;2023-04-24T13:32:08;11.80;99.90
22071;DHT22;11200;51.488;6.668;2023-04-24T13:34:34;11.80;99.90
22071;DHT22;11200;51.488;6.668;2023-04-24T13:37:01;11.80;99.90
22071;DHT22;11200;51.488;6.668;2023-04-24T13:39:26;11.70;99.90
22071;DHT22;11200;51.488;6.668;2023-04-24T13:41:52;11.70;99.90
22071;DHT22;11200;51.488;6.668;2023-04-24T13:44:19;11.70;99.90
22071;DHT22;11200;51.488;6.668;2023-04-24T13:46:47;11.70;99.90
22071;DHT22;11200;51.488;6.668;2023-04-24T13:49:14;11.80;99.90
22071;DHT22;11200;51.488;6.668;2023-04-24T13:51:40;11.80;99.90
22071;DHT22;11200;51.488;6.668;2023-04-24T13:54:06;11.80;99.90
22071;DHT22;11200;51.488;6.668;2023-04-24T13:56:32;11.90;99.90
22071;DHT22;11200;51.488;6.668;2023-04-24T13:58:58;11.90;99.90
22071;DHT22;11200;51.488;6.668;2023-04-24T14:01:23;11.90;99.90
22071;DHT22;11200;51.488;6.668;2023-04-24T14:03:51;12.00;99.90
22071;DHT22;11200;51.488;6.668;2023-04-24T14:06:20;12.00;99.90
22071;DHT22;11200;51.488;6.668;2023-04-24T14:08:47;12.10;99.90
22071;DHT22;11200;51.488;6.668;2023-04-24T14:11:13;12.10;99.90
22071;DHT22;11200;51.488;6.668;2023-04-24T14:13:39;12.10;99.90
22071;DHT22;11200;51.488;6.668;2023-04-24T14:16:06;12.20;99.90
22071;DHT22;11200;51.488;6.668;2023-04-24T14:18:31;12.10;99.90
22071;DHT22;11200;51.488;6.668;2023-04-24T14:20:57;12.10;99.90
22071;DHT22;11200;51.488;6.668;2023-04-24T14:23:22;12.10;99.90
22071;DHT22;11200;51.488;6.668;2023-04-24T14:25:48;12.10;99.90
22071;DHT22;11200;51.488;6.668;2023-04-24T14:28:17;12.10;99.90
22071;DHT22;11200;51.488;6.668;2023-04-24T14:30:43;12.10;99.90
22071;DHT22;11200;51.488;6.668;2023-04-24T14:33:09;12.00;99.90
22071;DHT22;11200;51.488;6.668;2023-04-24T14:35:35;12.00;99.90
22071;DHT22;11200;51.488;6.668;2023-04-24T14:38:01;12.00;99.90
22071;DHT22;11200;51.488;6.668;2023-04-24T14:40:27;11.90;99.90
22071;DHT22;11200;51.488;6.668;2023-04-24T14:42:53;11.90;99.90
22071;DHT22;11200;51.488;6.668;2023-04-24T14:45:18;11.90;99.90
22071;DHT22;11200;51.488;6.668;2023-04-24T14:47:45;11.80;99.90
22071;DHT22;11200;51.488;6.668;2023-04-24T14:50:10;11.80;99.90
22071;DHT22;11200;51.488;6.668;2023-04-24T14:52:38;11.80;99.90
22071;DHT22;11200;51.488;6.668;2023-04-24T14:55:05;11.80;99.90
22071;DHT22;11200;51.488;6.668;2023-04-24T14:57:32;11.80;99.90
22071;DHT22;11200;51.488;6.668;2023-04-24T14:59:58;11.80;99.90
22071;DHT22;11200;51.488;6.668;2023-04-24T15:02:23;11.80;99.90
22071;DHT22;11200;51.488;6.668;2023-04-24T15:04:49;11.80;99.90
22071;DHT22;11200;51.488;6.668;2023-04-24T15:07:15;11.80;99.90
22071;DHT22;11200;51.488;6.668;2023-04-24T15:09:40;11.80;99.90
22071;DHT22;11200;51.488;6.668;2023-04-24T15:12:06;11.80;99.90
22071;DHT22;11200;51.488;6.668;2023-04-24T15:14:32;11.90;99.90
22071;DHT22;11200;51.488;6.668;2023-04-24T15:16:58;11.80;99.90
22071;DHT22;11200;51.488;6.668;2023-04-24T15:19:23;11.90;99.90
22071;DHT22;11200;51.488;6.668;2023-04-24T15:21:49;12.00;99.90
22071;DHT22;11200;51.488;6.668;2023-04-24T15:24:14;12.00;99.90
22071;DHT22;11200;51.488;6.668;2023-04-24T15:26:40;12.00;99.90
22071;DHT22;11200;51.488;6.668;2023-04-24T15:29:05;12.00;99.90
22071;DHT22;11200;51.488;6.668;2023-04-24T15:31:31;12.20;99.90
22071;DHT22;11200;51.488;6.668;2023-04-24T15:33:57;12.00;99.90
22071;DHT22;11200;51.488;6.668;2023-04-24T15:36:22;12.10;99.90
22071;DHT22;11200;51.488;6.668;2023-04-24T15:38:52;12.10;99.90
22071;DHT22;11200;51.488;6.668;2023-04-24T15:41:18;12.10;99.90
22071;DHT22;11200;51.488;6.668;2023-04-24T15:43:43;12.10;99.90
22071;DHT22;11200;51.488;6.668;2023-04-24T15:46:10;12.10;99.90
22071;DHT22;11200;51.488;6.668;2023-04-24T15:48:36;12.10;99.90
22071;DHT22;11200;51.488;6.668;2023-04-24T15:51:03;12.10;99.90
22071;DHT22;11200;51.488;6.668;2023-04-24T15:53:29;12.10;99.90
22071;DHT22;11200;51.488;6.668;2023-04-24T15:55:54;12.20;99.90
22071;DHT22;11200;51.488;6.668;2023-04-24T15:58:22;12.10;99.90
22071;DHT22;11200;51.488;6.668;2023-04-24T16:00:48;12.20;99.90
22071;DHT22;11200;51.488;6.668;2023-04-24T16:03:14;12.20;99.90
22071;DHT22;11200;51.488;6.668;2023-04-24T16:05:39;12.20;99.90
22071;DHT22;11200;51.488;6.668;2023-04-24T16:08:06;12.20;99.90
22071;DHT22;11200;51.488;6.668;2023-04-24T16:10:32;12.20;99.90
22071;DHT22;11200;51.488;6.668;2023-04-24T16:12:58;12.20;99.90
22071;DHT22;11200;51.488;6.668;2023-04-24T16:15:26;12.20;99.90
22071;DHT22;11200;51.488;6.668;2023-04-24T16:17:52;12.20;99.90
22071;DHT22;11200;51.488;6.668;2023-04-24T16:20:19;12.20;99.90
22071;DHT22;11200;51.488;6.668;2023-04-24T16:22:44;12.20;99.90
22071;DHT22;11200;51.488;6.668;2023-04-24T16:25:11;12.20;99.90
22071;DHT22;11200;51.488;6.668;2023-04-24T16:27:37;12.20;99.90
22071;DHT22;11200;51.488;6.668;2023-04-24T16:30:07;12.10;99.90
22071;DHT22;11200;51.488;6.668;2023-04-24T16:32:36;12.10;99.90
22071;DHT22;11200;51.488;6.668;2023-04-24T16:35:02;12.10;99.90
22071;DHT22;11200;51.488;6.668;2023-04-24T16:37:28;12.10;99.90
22071;DHT22;11200;51.488;6.668;2023-04-24T16:39:54;12.00;99.90
22071;DHT22;11200;51.488;6.668;2023-04-24T16:42:20;12.00;99.90
22071;DHT22;11200;51.488;6.668;2023-04-24T16:44:46;12.00;99.90
22071;DHT22;11200;51.488;6.668;2023-04-24T16:47:13;11.90;99.90
22071;DHT22;11200;51.488;6.668;2023-04-24T16:49:40;11.90;99.90
22071;DHT22;11200;51.488;6.668;2023-04-24T16:52:06;11.80;99.90
22071;DHT22;11200;51.488;6.668;2023-04-24T16:54:36;11.80;99.90
22071;DHT22;11200;51.488;6.668;2023-04-24T16:57:04;11.80;99.90
22071;DHT22;11200;51.488;6.668;2023-04-24T16:59:32;11.70;99.90
22071;DHT22;11200;51.488;6.668;2023-04-24T17:01:59;11.70;99.90
22071;DHT22;11200;51.488;6.668;2023-04-24T17:04:28;11.70;99.90
22071;DHT22;11200;51.488;6.668;2023-04-24T17:06:54;11.70;99.90
22071;DHT22;11200;51.488;6.668;2023-04-24T17:09:20;11.60;99.90
22071;DHT22;11200;51.488;6.668;2023-04-24T17:11:46;11.60;99.90
22071;DHT22;11200;51.488;6.668;2023-04-24T17:14:12;11.60;99.90
22071;DHT22;11200;51.488;6.668;2023-04-24T17:16:37;11.50;99.90
22071;DHT22;11200;51.488;6.668;2023-04-24T17:19:04;11.50;99.90
22071;DHT22;11200;51.488;6.668;2023-04-24T17:21:30;11.50;99.90
22071;DHT22;11200;51.488;6.668;2023-04-24T17:23:56;11.40;99.90
22071;DHT22;11200;51.488;6.668;2023-04-24T17:26:22;11.40;99.90
22071;DHT22;11200;51.488;6.668;2023-04-24T17:28:47;11.40;99.90
22071;DHT22;11200;51.488;6.668;2023-04-24T17:31:13;11.40;99.90
22071;DHT22;11200;51.488;6.668;2023-04-24T17:33:39;11.40;99.90
22071;DHT22;11200;51.488;6.668;2023-04-24T17:36:04;11.30;99.90
22071;DHT22;11200;51.488;6.668;2023-04-24T17:38:32;11.30;99.90
22071;DHT22;11200;51.488;6.668;2023-04-24T17:40:57;11.30;99.90
22071;DHT22;11200;51.488;6.668;2023-04-24T17:43:25;11.20;99.90
22071;DHT22;11200;51.488;6.668;2023-04-24T17:45:53;11.20;99.90
22071;DHT22;11200;51.488;6.668;2023-04-24T17:48:23;11.20;99.90
22071;DHT22;11200;51.488;6.668;2023-04-24T17:50:49;11.10;99.90
22071;DHT22;11200;51.488;6.668;2023-04-24T17:53:15;11.20;99.90
22071;DHT22;11200;51.488;6.668;2023-04-24T17:55:43;11.10;99.90
22071;DHT22;11200;51.488;6.668;2023-04-24T17:58:11;11.20;99.90
22071;DHT22;11200;51.488;6.668;2023-04-24T18:00:38;11.00;99.90
22071;DHT22;11200;51.488;6.668;2023-04-24T18:03:05;11.00;99.90
22071;DHT22;11200;51.488;6.668;2023-04-24T18:05:32;11.00;99.90
22071;DHT22;11200;51.488;6.668;2023-04-24T18:07:58;10.90;99.90
22071;DHT22;11200;51.488;6.668;2023-04-24T18:10:25;10.90;99.90
22071;DHT22;11200;51.488;6.668;2023-04-24T18:12:52;10.90;99.90
22071;DHT22;11200;51.488;6.668;2023-04-24T18:15:18;10.80;99.90
22071;DHT22;11200;51.488;6.668;2023-04-24T18:17:44;10.80;99.90
22071;DHT22;11200;51.488;6.668;2023-04-24T18:20:12;10.80;99.90
22071;DHT22;11200;51.488;6.668;2023-04-24T18:22:38;10.70;99.90
22071;DHT22;11200;51.488;6.668;2023-04-24T18:25:04;10.70;99.90
22071;DHT22;11200;51.488;6.668;2023-04-24T18:27:30;10.70;99.90
22071;DHT22;11200;51.488;6.668;2023-04-24T18:29:56;10.60;99.90
22071;DHT22;11200;51.488;6.668;2023-04-24T18:32:22;10.70;99.90
22071;DHT22;11200;51.488;6.668;2023-04-24T18:34:48;10.60;99.90
22071;DHT22;11200;51.488;6.668;2023-04-24T18:37:14;10.50;99.90
22071;DHT22;11200;51.488;6.668;2023-04-24T18:39:40;10.50;99.90
22071;DHT22;11200;51.488;6.668;2023-04-24T18:42:06;10.50;99.90
22071;DHT22;11200;51.488;6.668;2023-04-24T18:44:33;10.50;99.90
22071;DHT22;11200;51.488;6.668;2023-04-24T18:46:58;10.50;99.90
22071;DHT22;11200;51.488;6.668;2023-04-24T18:49:24;10.40;99.90
22071;DHT22;11200;51.488;6.668;2023-04-24T18:51:54;10.40;99.90
22071;DHT22;11200;51.488;6.668;2023-04-24T18:54:19;10.30;99.90
22071;DHT22;11200;51.488;6.668;2023-04-24T18:56:45;10.20;99.90
22071;DHT22;11200;51.488;6.668;2023-04-24T18:59:11;10.20;99.90
22071;DHT22;11200;51.488;6.668;2023-04-24T19:01:36;10.20;99.90
22071;DHT22;11200;51.488;6.668;2023-04-24T19:04:02;10.20;99.90
22071;DHT22;11200;51.488;6.668;2023-04-24T19:06:28;10.30;99.90
22071;DHT22;11200;51.488;6.668;2023-04-24T19:08:54;10.10;99.90
22071;DHT22;11200;51.488;6.668;2023-04-24T19:11:19;10.10;99.90
22071;DHT22;11200;51.488;6.668;2023-04-24T19:13:45;10.00;99.90
22071;DHT22;11200;51.488;6.668;2023-04-24T19:16:11;9.90;99.90
22071;DHT22;11200;51.488;6.668;2023-04-24T19:18:36;9.90;99.90
22071;DHT22;11200;51.488;6.668;2023-04-24T19:21:02;9.90;99.90
22071;DHT22;11200;51.488;6.668;2023-04-24T19:23:28;9.90;99.90
22071;DHT22;11200;51.488;6.668;2023-04-24T19:25:54;9.90;99.90
22071;DHT22;11200;51.488;6.668;2023-04-24T19:28:20;9.80;99.90
22071;DHT22;11200;51.488;6.668;2023-04-24T19:30:46;9.80;99.90
22071;DHT22;11200;51.488;6.668;2023-04-24T19:33:11;9.80;99.90
22071;DHT22;11200;51.488;6.668;2023-04-24T19:35:37;9.70;99.90